Time;durP1;ratioP1;P1;durP2;ratioP2;P2;SDS_P1;SDS_P2;PMS_P1;PMS_P2;Temp;Humidity;BMP_temperature;BMP_pressure;BME280_temperature;BME280_humidity;BME280_pressure;Samples;Min_cycle;Max_cycle;Signal;HPM_P1;HPM_P2
2022/06/12 00:00:16;;;;;;;4.35;2.30;;;;;;;;;;5097099;28;20219;-59
2022/06/12 00:02:44;;;;;;;3.88;1.85;;;;;;;;;;5097346;28;20200;-59
2022/06/12 00:05:12;;;;;;;2.95;1.70;;;;;;;;;;5096639;28;20206;-59
2022/06/12 00:07:42;;;;;;;1.80;1.70;;;;;;;;;;5096814;28;20219;-59
2022/06/12 00:10:10;;;;;;;2.05;1.85;;;;;;;;;;5097265;28;20546;-59
2022/06/12 00:12:38;;;;;;;2.58;1.90;;;;;;;;;;5096502;28;20560;-59
2022/06/12 00:15:06;;;;;;;2.25;1.92;;;;;;;;;;5097156;28;20203;-59
2022/06/12 00:17:34;;;;;;;2.25;1.80;;;;;;;;;;5096020;28;20211;-59
2022/06/12 00:20:02;;;;;;;2.10;1.92;;;;;;;;;;5096724;28;20234;-59
2022/06/12 00:22:29;;;;;;;2.28;2.08;;;;;;;;;;5096314;28;20210;-59
2022/06/12 00:24:58;;;;;;;2.13;1.77;;;;;;;;;;5096679;28;20210;-59
2022/06/12 00:27:25;;;;;;;2.03;1.83;;;;;;;;;;5096531;28;20207;-59
2022/06/12 00:29:52;;;;;;;2.63;2.13;;;;;;;;;;5096433;28;20540;-59
2022/06/12 00:32:20;;;;;;;2.10;2.00;;;;;;;;;;5096318;28;20195;-59
2022/06/12 00:34:49;;;;;;;2.13;2.00;;;;;;;;;;5096261;28;20451;-59
2022/06/12 00:37:17;;;;;;;3.08;2.28;;;;;;;;;;5096351;28;20648;-59
2022/06/12 00:39:46;;;;;;;2.75;2.00;;;;;;;;;;5096394;28;20230;-59
2022/06/12 00:42:22;;;;;;;2.75;2.10;;;;;;;;;;5096676;28;20226;-59
2022/06/12 00:44:49;;;;;;;2.10;1.95;;;;;;;;;;5096261;28;20211;-59
2022/06/12 00:47:17;;;;;;;2.00;1.80;;;;;;;;;;5095856;28;20211;-59
2022/06/12 00:49:47;;;;;;;2.30;1.77;;;;;;;;;;5098168;28;20235;-59
2022/06/12 00:52:16;;;;;;;2.35;1.80;;;;;;;;;;5098834;28;20669;-59
2022/06/12 00:54:45;;;;;;;2.15;1.70;;;;;;;;;;5099414;28;20553;-59
2022/06/12 00:57:13;;;;;;;1.80;1.70;;;;;;;;;;5099379;28;20207;-59
2022/06/12 00:59:44;;;;;;;1.83;1.70;;;;;;;;;;5098606;28;20216;-59
2022/06/12 01:02:13;;;;;;;1.88;1.77;;;;;;;;;;5099345;28;20199;-59
2022/06/12 01:07:29;;;;;;;2.10;1.80;;;;;;;;;;5086358;28;20466;-59
2022/06/12 01:09:59;;;;;;;2.45;1.90;;;;;;;;;;5099875;28;20200;-59
2022/06/12 01:12:28;;;;;;;2.20;2.00;;;;;;;;;;5100209;28;20536;-59
2022/06/12 01:14:59;;;;;;;1.90;1.80;;;;;;;;;;5099139;28;20598;-59
2022/06/12 01:17:28;;;;;;;2.05;1.85;;;;;;;;;;5099432;28;20200;-59
2022/06/12 01:19:56;;;;;;;1.80;1.70;;;;;;;;;;5099186;28;20227;-60
2022/06/12 01:22:42;;;;;;;2.15;1.70;;;;;;;;;;5099628;28;20207;-59
2022/06/12 01:25:14;;;;;;;2.13;1.92;;;;;;;;;;5099804;28;20196;-59
2022/06/12 01:27:57;;;;;;;2.17;1.90;;;;;;;;;;5099618;28;20227;-59
2022/06/12 01:30:28;;;;;;;2.03;1.83;;;;;;;;;;5096291;28;20571;-59
2022/06/12 01:33:01;;;;;;;2.22;1.90;;;;;;;;;;5099512;28;20463;-60
2022/06/12 01:35:35;;;;;;;2.22;2.10;;;;;;;;;;5098720;28;20567;-59
2022/06/12 01:38:08;;;;;;;1.83;1.73;;;;;;;;;;5099327;28;20635;-59
2022/06/12 01:40:38;;;;;;;2.20;2.00;;;;;;;;;;5099004;28;20230;-59
2022/06/12 01:43:12;;;;;;;2.25;1.88;;;;;;;;;;5098685;28;20210;-59
2022/06/12 01:45:44;;;;;;;1.85;1.75;;;;;;;;;;5098391;28;20210;-59
2022/06/12 01:51:02;;;;;;;1.92;1.80;;;;;;;;;;5095513;28;20557;-59
2022/06/12 01:53:33;;;;;;;2.03;1.92;;;;;;;;;;5095507;28;20206;-59
2022/06/12 01:56:06;;;;;;;2.15;2.05;;;;;;;;;;5095494;28;20204;-59
2022/06/12 01:58:37;;;;;;;2.95;1.92;;;;;;;;;;5094421;28;20310;-59
2022/06/12 02:01:11;;;;;;;2.22;1.70;;;;;;;;;;5094449;28;20199;-59
2022/06/12 02:03:43;;;;;;;2.85;1.88;;;;;;;;;;5094322;28;20604;-59
2022/06/12 02:06:15;;;;;;;1.88;1.77;;;;;;;;;;5079511;28;20351;-59
2022/06/12 02:08:45;;;;;;;1.98;1.88;;;;;;;;;;5095078;28;20195;-60
2022/06/12 02:14:03;;;;;;;2.10;1.95;;;;;;;;;;5094139;28;20292;-59
2022/06/12 02:16:32;;;;;;;2.05;1.80;;;;;;;;;;5094939;28;20776;-60
2022/06/12 02:19:01;;;;;;;2.35;1.80;;;;;;;;;;5095358;28;20200;-59
2022/06/12 02:21:32;;;;;;;2.00;1.90;;;;;;;;;;5094420;28;20200;-60
2022/06/12 02:24:02;;;;;;;2.05;1.70;;;;;;;;;;5095261;28;20210;-60
2022/06/12 02:26:33;;;;;;;2.08;1.90;;;;;;;;;;5094559;28;20204;-60
2022/06/12 02:29:03;;;;;;;2.00;1.80;;;;;;;;;;5094869;28;20227;-59
2022/06/12 02:31:34;;;;;;;2.20;1.80;;;;;;;;;;5094560;28;20282;-60
2022/06/12 02:34:03;;;;;;;1.60;1.50;;;;;;;;;;5095042;28;20199;-59
2022/06/12 02:36:34;;;;;;;1.85;1.75;;;;;;;;;;5095065;28;20203;-60
2022/06/12 02:39:04;;;;;;;2.03;1.92;;;;;;;;;;5095096;28;20466;-59
2022/06/12 02:41:33;;;;;;;1.60;1.50;;;;;;;;;;5094919;28;20214;-59
2022/06/12 02:44:04;;;;;;;1.98;1.85;;;;;;;;;;5094230;28;20295;-59
2022/06/12 02:46:34;;;;;;;2.00;1.90;;;;;;;;;;5093457;28;20555;-60
2022/06/12 02:49:02;;;;;;;1.73;1.63;;;;;;;;;;5093560;28;20641;-60
2022/06/12 02:51:35;;;;;;;1.95;1.85;;;;;;;;;;5094761;28;20212;-59
2022/06/12 02:54:08;;;;;;;1.95;1.85;;;;;;;;;;5094145;28;20199;-59
2022/06/12 02:56:39;;;;;;;1.90;1.80;;;;;;;;;;5094062;28;20268;-59
2022/06/12 02:59:12;;;;;;;1.98;1.88;;;;;;;;;;5092640;28;20196;-59
2022/06/12 03:01:43;;;;;;;2.03;1.83;;;;;;;;;;5083006;28;20210;-59
2022/06/12 03:04:14;;;;;;;2.05;1.95;;;;;;;;;;5079412;28;20196;-59
2022/06/12 03:06:44;;;;;;;2.22;2.13;;;;;;;;;;5080018;28;20216;-59
2022/06/12 03:09:11;;;;;;;2.08;1.90;;;;;;;;;;5079471;28;20220;-60
2022/06/12 03:11:41;;;;;;;1.83;1.73;;;;;;;;;;5079238;28;20196;-60
2022/06/12 03:14:09;;;;;;;1.80;1.70;;;;;;;;;;5080743;28;20518;-59
2022/06/12 03:16:40;;;;;;;1.65;1.55;;;;;;;;;;5079719;28;20583;-59
2022/06/12 03:19:09;;;;;;;1.77;1.67;;;;;;;;;;5079994;28;20197;-59
2022/06/12 03:21:39;;;;;;;1.90;1.80;;;;;;;;;;5080268;28;20207;-59
2022/06/12 03:24:16;;;;;;;2.03;1.88;;;;;;;;;;5080334;28;20200;-60
2022/06/12 03:26:51;;;;;;;2.05;1.95;;;;;;;;;;5079526;28;20207;-59
2022/06/12 03:29:24;;;;;;;1.88;1.77;;;;;;;;;;5080413;28;20227;-59
2022/06/12 03:31:55;;;;;;;1.98;1.88;;;;;;;;;;5080362;28;20226;-60
2022/06/12 03:34:30;;;;;;;1.90;1.80;;;;;;;;;;5080213;28;20204;-59
2022/06/12 03:37:03;;;;;;;2.20;1.70;;;;;;;;;;5079954;28;20204;-59
2022/06/12 03:39:36;;;;;;;2.00;1.90;;;;;;;;;;5080236;28;20585;-59
2022/06/12 03:42:09;;;;;;;2.28;1.60;;;;;;;;;;5080116;28;20209;-60
2022/06/12 03:44:43;;;;;;;2.00;1.90;;;;;;;;;;5079579;28;20212;-60
2022/06/12 03:47:15;;;;;;;2.05;1.95;;;;;;;;;;5080504;28;20204;-59
2022/06/12 03:49:46;;;;;;;2.20;2.00;;;;;;;;;;5079432;28;20236;-60
2022/06/12 03:52:15;;;;;;;2.00;1.90;;;;;;;;;;5079510;28;20234;-59
2022/06/12 03:54:48;;;;;;;1.90;1.80;;;;;;;;;;5079849;28;20223;-59
2022/06/12 04:00:06;;;;;;;2.03;1.80;;;;;;;;;;5079947;28;20194;-59
2022/06/12 04:02:35;;;;;;;1.98;1.88;;;;;;;;;;5079957;28;20248;-59
2022/06/12 04:05:03;;;;;;;1.95;1.85;;;;;;;;;;5079521;28;20204;-60
2022/06/12 04:07:32;;;;;;;1.90;1.77;;;;;;;;;;5079919;28;20201;-60
2022/06/12 04:10:02;;;;;;;1.85;1.75;;;;;;;;;;5079009;28;20228;-59
2022/06/12 04:12:31;;;;;;;1.90;1.80;;;;;;;;;;5078689;28;20231;-59
2022/06/12 04:15:01;;;;;;;1.90;1.80;;;;;;;;;;5078906;28;20204;-59
2022/06/12 04:17:29;;;;;;;1.85;1.75;;;;;;;;;;5079533;28;20490;-59
2022/06/12 04:20:00;;;;;;;2.15;1.95;;;;;;;;;;5079007;28;20212;-59
2022/06/12 04:22:32;;;;;;;2.05;1.85;;;;;;;;;;5079090;28;20197;-59
2022/06/12 04:25:05;;;;;;;2.03;1.92;;;;;;;;;;5079417;28;20208;-60
2022/06/12 04:27:34;;;;;;;2.50;2.30;;;;;;;;;;5079434;28;20210;-59
2022/06/12 04:30:04;;;;;;;2.08;1.98;;;;;;;;;;5078937;28;20220;-59
2022/06/12 04:32:35;;;;;;;2.00;1.90;;;;;;;;;;5078678;28;20603;-59
2022/06/12 04:35:02;;;;;;;2.00;1.90;;;;;;;;;;5078725;28;20196;-65
2022/06/12 04:37:32;;;;;;;2.03;1.92;;;;;;;;;;5079324;28;20207;-60
2022/06/12 04:40:02;;;;;;;2.10;2.00;;;;;;;;;;5078747;28;20202;-60
2022/06/12 04:42:31;;;;;;;2.00;1.90;;;;;;;;;;5078705;28;20207;-59
2022/06/12 04:45:00;;;;;;;2.00;1.90;;;;;;;;;;5058760;28;20204;-59
2022/06/12 04:47:29;;;;;;;2.20;2.10;;;;;;;;;;5075239;28;20200;-60
2022/06/12 04:49:57;;;;;;;2.42;2.33;;;;;;;;;;5078395;28;20232;-59
2022/06/12 04:52:26;;;;;;;2.78;1.85;;;;;;;;;;5078448;28;20317;-60
2022/06/12 04:54:53;;;;;;;2.13;2.03;;;;;;;;;;5078373;28;20292;-60
2022/06/12 04:57:23;;;;;;;2.10;2.00;;;;;;;;;;5078476;28;20212;-60
2022/06/12 04:59:51;;;;;;;2.30;2.10;;;;;;;;;;5078651;28;20196;-59
2022/06/12 05:02:18;;;;;;;2.05;1.95;;;;;;;;;;5077947;28;20215;-59
2022/06/12 05:04:45;;;;;;;2.13;2.03;;;;;;;;;;5078199;28;20200;-59
2022/06/12 05:07:14;;;;;;;2.10;2.00;;;;;;;;;;5078381;28;20188;-59
2022/06/12 05:09:42;;;;;;;2.30;2.20;;;;;;;;;;5078373;28;20200;-60
2022/06/12 05:12:12;;;;;;;2.50;2.30;;;;;;;;;;5078486;28;20598;-60
2022/06/12 05:14:41;;;;;;;2.13;2.03;;;;;;;;;;5078103;28;20204;-59
2022/06/12 05:17:11;;;;;;;2.05;1.95;;;;;;;;;;5078322;28;20196;-59
2022/06/12 05:19:40;;;;;;;1.98;1.88;;;;;;;;;;5078260;28;20594;-59
2022/06/12 05:22:08;;;;;;;2.03;1.92;;;;;;;;;;5078047;28;20204;-60
2022/06/12 05:24:36;;;;;;;2.28;2.08;;;;;;;;;;5077213;28;20204;-60
2022/06/12 05:27:05;;;;;;;1.98;1.80;;;;;;;;;;5077967;28;20192;-60
2022/06/12 05:29:34;;;;;;;2.13;2.03;;;;;;;;;;5077732;28;20204;-60
2022/06/12 05:32:04;;;;;;;2.10;2.00;;;;;;;;;;5077155;28;20207;-60
2022/06/12 05:34:32;;;;;;;1.92;1.83;;;;;;;;;;5076584;28;20614;-60
2022/06/12 05:37:00;;;;;;;1.80;1.70;;;;;;;;;;5077246;28;20211;-60
2022/06/12 05:39:28;;;;;;;2.03;1.92;;;;;;;;;;5077216;28;20205;-60
2022/06/12 05:41:55;;;;;;;2.03;1.90;;;;;;;;;;5078114;28;20261;-60
2022/06/12 05:44:23;;;;;;;2.28;1.95;;;;;;;;;;5077328;28;20222;-60
2022/06/12 05:46:50;;;;;;;2.03;1.83;;;;;;;;;;5077571;28;20192;-59
2022/06/12 05:49:19;;;;;;;2.13;2.03;;;;;;;;;;5077322;28;20297;-60
2022/06/12 05:51:47;;;;;;;2.15;2.05;;;;;;;;;;5076931;28;20228;-60
2022/06/12 05:54:14;;;;;;;2.30;2.10;;;;;;;;;;5077422;28;20200;-59
2022/06/12 05:56:42;;;;;;;2.10;2.00;;;;;;;;;;5077594;28;20226;-59
2022/06/12 05:59:09;;;;;;;2.25;2.08;;;;;;;;;;5078002;28;20208;-59
2022/06/12 06:01:38;;;;;;;2.08;1.98;;;;;;;;;;5077699;28;20200;-60
2022/06/12 06:04:07;;;;;;;2.30;2.20;;;;;;;;;;5077372;28;20291;-60
2022/06/12 06:06:39;;;;;;;2.15;2.05;;;;;;;;;;5077433;28;20204;-60
2022/06/12 06:09:08;;;;;;;2.05;1.95;;;;;;;;;;5061229;28;20196;-60
2022/06/12 06:11:35;;;;;;;2.10;2.00;;;;;;;;;;5077032;28;20212;-59
2022/06/12 06:14:03;;;;;;;2.30;2.20;;;;;;;;;;5077276;28;20200;-59
2022/06/12 06:16:33;;;;;;;2.33;2.13;;;;;;;;;;5077123;28;20211;-60
2022/06/12 06:19:00;;;;;;;1.98;1.85;;;;;;;;;;5076496;28;20200;-60
2022/06/12 06:21:27;;;;;;;2.30;2.10;;;;;;;;;;5077356;28;20205;-59
2022/06/12 06:23:56;;;;;;;2.00;1.90;;;;;;;;;;5076717;28;20571;-60
2022/06/12 06:26:24;;;;;;;1.98;1.88;;;;;;;;;;5076728;28;20226;-60
2022/06/12 06:28:52;;;;;;;2.05;1.95;;;;;;;;;;5076623;28;20235;-59
2022/06/12 06:31:19;;;;;;;2.42;2.30;;;;;;;;;;5076419;28;20311;-60
2022/06/12 06:33:47;;;;;;;2.08;1.95;;;;;;;;;;5075750;28;20200;-60
2022/06/12 06:36:15;;;;;;;1.90;1.80;;;;;;;;;;5077445;28;20215;-59
2022/06/12 06:38:43;;;;;;;2.08;1.98;;;;;;;;;;5080155;28;20192;-59
2022/06/12 06:41:12;;;;;;;2.05;1.95;;;;;;;;;;5079927;28;20212;-60
2022/06/12 06:46:20;;;;;;;1.95;1.85;;;;;;;;;;5079996;28;20204;-59
2022/06/12 06:48:48;;;;;;;1.98;1.88;;;;;;;;;;5079280;28;20236;-59
2022/06/12 06:51:15;;;;;;;1.90;1.80;;;;;;;;;;5080002;28;20243;-59
2022/06/12 06:53:43;;;;;;;2.00;1.90;;;;;;;;;;5080208;28;20204;-60
2022/06/12 06:56:12;;;;;;;2.15;2.05;;;;;;;;;;5080673;28;20448;-60
2022/06/12 06:58:39;;;;;;;2.00;1.90;;;;;;;;;;5080401;28;20215;-59
2022/06/12 07:01:08;;;;;;;2.45;2.00;;;;;;;;;;5080523;28;20207;-59
2022/06/12 07:03:35;;;;;;;2.22;2.13;;;;;;;;;;5079715;28;20265;-59
2022/06/12 07:06:03;;;;;;;2.10;2.00;;;;;;;;;;5079623;28;20204;-59
2022/06/12 07:08:31;;;;;;;2.20;2.10;;;;;;;;;;5080313;28;20211;-59
2022/06/12 07:10:59;;;;;;;2.05;1.95;;;;;;;;;;5079872;28;20289;-59
2022/06/12 07:13:28;;;;;;;2.15;1.95;;;;;;;;;;5079794;28;20602;-59
2022/06/12 07:15:55;;;;;;;1.92;1.83;;;;;;;;;;5079666;28;20196;-60
2022/06/12 07:18:23;;;;;;;2.30;2.20;;;;;;;;;;5077630;28;20219;-59
2022/06/12 07:20:52;;;;;;;1.95;1.77;;;;;;;;;;5078755;28;20199;-59
2022/06/12 07:23:20;;;;;;;1.90;1.80;;;;;;;;;;5079080;28;20200;-59
2022/06/12 07:25:48;;;;;;;2.20;2.03;;;;;;;;;;5079176;28;20204;-59
2022/06/12 07:28:16;;;;;;;2.38;2.28;;;;;;;;;;5078812;28;20207;-59
2022/06/12 07:30:45;;;;;;;2.15;2.05;;;;;;;;;;5079316;28;20220;-59
2022/06/12 07:33:13;;;;;;;2.13;2.03;;;;;;;;;;5078322;28;20590;-59
2022/06/12 07:35:41;;;;;;;1.90;1.80;;;;;;;;;;5078781;28;20210;-59
2022/06/12 07:38:09;;;;;;;2.40;2.20;;;;;;;;;;5078351;28;20215;-59
2022/06/12 07:40:38;;;;;;;2.10;2.00;;;;;;;;;;5078206;28;20590;-59
2022/06/12 07:43:07;;;;;;;2.10;2.00;;;;;;;;;;5061968;28;20196;-59
2022/06/12 07:45:34;;;;;;;2.00;1.90;;;;;;;;;;5079102;28;20682;-59
2022/06/12 07:48:03;;;;;;;2.10;2.00;;;;;;;;;;5077229;28;20726;-59
2022/06/12 07:50:31;;;;;;;2.15;2.00;;;;;;;;;;5077711;28;20238;-59
2022/06/12 07:52:59;;;;;;;2.25;1.92;;;;;;;;;;5078700;28;20205;-59
2022/06/12 07:55:27;;;;;;;2.10;2.00;;;;;;;;;;5078333;28;20204;-59
2022/06/12 07:57:56;;;;;;;2.00;1.90;;;;;;;;;;5078724;28;20215;-59
2022/06/12 08:00:24;;;;;;;1.90;1.80;;;;;;;;;;5078383;28;20211;-59
2022/06/12 08:02:52;;;;;;;1.92;1.83;;;;;;;;;;5079068;28;20274;-59
2022/06/12 08:05:22;;;;;;;2.00;1.90;;;;;;;;;;5079455;28;20197;-59
2022/06/12 08:07:49;;;;;;;2.15;2.00;;;;;;;;;;5078323;28;20239;-59
2022/06/12 08:10:17;;;;;;;2.00;1.90;;;;;;;;;;5078764;28;20200;-59
2022/06/12 08:12:45;;;;;;;2.08;1.98;;;;;;;;;;5078053;28;20228;-59
2022/06/12 08:15:15;;;;;;;1.75;1.65;;;;;;;;;;5078733;28;20205;-59
2022/06/12 08:17:42;;;;;;;2.30;2.10;;;;;;;;;;5078766;28;20584;-59
2022/06/12 08:20:27;;;;;;;2.00;1.90;;;;;;;;;;5078045;28;20234;-59
2022/06/12 08:22:59;;;;;;;2.00;1.90;;;;;;;;;;5078062;28;20265;-59
2022/06/12 08:25:26;;;;;;;2.25;1.88;;;;;;;;;;5077823;28;20283;-59
2022/06/12 08:27:54;;;;;;;1.90;1.80;;;;;;;;;;5077539;28;20513;-60
2022/06/12 08:30:22;;;;;;;1.75;1.65;;;;;;;;;;5078347;28;20238;-59
2022/06/12 08:32:51;;;;;;;1.80;1.70;;;;;;;;;;5077731;28;20228;-59
2022/06/12 08:35:21;;;;;;;1.83;1.73;;;;;;;;;;5077617;28;20203;-60
2022/06/12 08:37:49;;;;;;;1.77;1.67;;;;;;;;;;5077912;28;20226;-59
2022/06/12 08:40:20;;;;;;;1.80;1.70;;;;;;;;;;5077081;28;20210;-59
2022/06/12 08:42:51;;;;;;;1.88;1.70;;;;;;;;;;5078219;28;20457;-59
2022/06/12 08:45:19;;;;;;;1.73;1.63;;;;;;;;;;5077877;28;20473;-60
2022/06/12 08:47:51;;;;;;;1.98;1.88;;;;;;;;;;5078365;28;20222;-59
2022/06/12 08:50:21;;;;;;;1.73;1.63;;;;;;;;;;5078733;28;20670;-59
2022/06/12 08:52:51;;;;;;;1.90;1.75;;;;;;;;;;5077898;28;20224;-59
2022/06/12 08:55:24;;;;;;;2.05;1.85;;;;;;;;;;5077390;28;20200;-60
2022/06/12 08:57:54;;;;;;;1.80;1.70;;;;;;;;;;5077572;28;20201;-59
2022/06/12 09:00:23;;;;;;;1.95;1.65;;;;;;;;;;5077084;28;20776;-59
2022/06/12 09:02:51;;;;;;;1.95;1.58;;;;;;;;;;5076980;28;20215;-59
2022/06/12 09:05:22;;;;;;;1.60;1.50;;;;;;;;;;5076819;28;20599;-59
2022/06/12 09:07:52;;;;;;;2.53;1.63;;;;;;;;;;5076928;28;20212;-59
2022/06/12 09:10:25;;;;;;;1.83;1.60;;;;;;;;;;5077713;28;20196;-59
2022/06/12 09:12:55;;;;;;;2.70;1.70;;;;;;;;;;5077196;28;20279;-59
2022/06/12 09:15:26;;;;;;;1.75;1.58;;;;;;;;;;5076954;28;20210;-59
2022/06/12 09:17:57;;;;;;;2.03;1.50;;;;;;;;;;5076929;28;20493;-60
2022/06/12 09:20:33;;;;;;;1.50;1.40;;;;;;;;;;5077164;28;20204;-59
2022/06/12 09:23:03;;;;;;;2.00;1.70;;;;;;;;;;5076911;28;20535;-59
2022/06/12 09:25:34;;;;;;;2.45;1.67;;;;;;;;;;5076585;28;20200;-59
2022/06/12 09:28:06;;;;;;;1.63;1.52;;;;;;;;;;5076991;28;20200;-59
2022/06/12 09:30:37;;;;;;;2.10;1.63;;;;;;;;;;5077280;28;20196;-59
2022/06/12 09:33:09;;;;;;;1.85;1.70;;;;;;;;;;5076397;28;20224;-59
2022/06/12 09:35:43;;;;;;;2.30;1.80;;;;;;;;;;5075084;28;20222;-59
2022/06/12 09:38:21;;;;;;;1.70;1.60;;;;;;;;;;5076945;28;20663;-59
2022/06/12 09:41:02;;;;;;;2.00;1.70;;;;;;;;;;5076081;28;20196;-59
2022/06/12 09:43:35;;;;;;;1.67;1.55;;;;;;;;;;5076567;28;20607;-59
2022/06/12 09:46:04;;;;;;;2.10;1.70;;;;;;;;;;5076124;28;20723;-60
2022/06/12 09:48:40;;;;;;;2.20;1.50;;;;;;;;;;5074464;28;20564;-59
2022/06/12 09:51:12;;;;;;;1.77;1.67;;;;;;;;;;5075989;28;20216;-59
2022/06/12 09:53:57;;;;;;;1.70;1.60;;;;;;;;;;5075986;28;20200;-60
2022/06/12 09:56:28;;;;;;;1.60;1.50;;;;;;;;;;5075878;28;20197;-59
2022/06/12 09:58:59;;;;;;;1.83;1.70;;;;;;;;;;5076706;28;20273;-58
2022/06/12 10:01:29;;;;;;;1.80;1.70;;;;;;;;;;5076237;28;20675;-60
2022/06/12 10:03:59;;;;;;;2.55;1.70;;;;;;;;;;5075810;28;20591;-58
2022/06/12 10:06:29;;;;;;;1.67;1.58;;;;;;;;;;5075552;28;20192;-59
2022/06/12 10:09:01;;;;;;;2.72;1.80;;;;;;;;;;5075713;28;20212;-59
2022/06/12 10:11:33;;;;;;;1.70;1.60;;;;;;;;;;5077514;28;20224;-59
2022/06/12 10:14:03;;;;;;;1.60;1.50;;;;;;;;;;5079506;28;20281;-59
2022/06/12 10:16:43;;;;;;;1.98;1.88;;;;;;;;;;5079091;28;20261;-59
2022/06/12 10:19:15;;;;;;;1.80;1.60;;;;;;;;;;5079185;28;20539;-59
2022/06/12 10:21:44;;;;;;;2.38;1.70;;;;;;;;;;5079110;28;20201;-59
2022/06/12 10:24:12;;;;;;;1.70;1.60;;;;;;;;;;5079987;28;20337;-59
2022/06/12 10:26:41;;;;;;;1.67;1.58;;;;;;;;;;5078977;28;20196;-59
2022/06/12 10:29:10;;;;;;;2.33;1.73;;;;;;;;;;5078713;28;20219;-59
2022/06/12 10:31:47;;;;;;;2.17;1.75;;;;;;;;;;5077346;28;20220;-59
2022/06/12 10:34:16;;;;;;;1.90;1.70;;;;;;;;;;5077194;28;20245;-59
2022/06/12 10:36:44;;;;;;;1.80;1.70;;;;;;;;;;5077323;28;20199;-59
2022/06/12 10:39:14;;;;;;;2.05;1.70;;;;;;;;;;5077299;28;20219;-59
2022/06/12 10:41:48;;;;;;;1.85;1.67;;;;;;;;;;5078084;28;20200;-60
2022/06/12 10:44:33;;;;;;;2.30;1.80;;;;;;;;;;5077996;28;20571;-59
2022/06/12 10:47:10;;;;;;;2.92;1.90;;;;;;;;;;5060268;28;20365;-60
2022/06/12 10:49:39;;;;;;;1.83;1.60;;;;;;;;;;5076962;28;20339;-59
2022/06/12 10:52:15;;;;;;;1.92;1.70;;;;;;;;;;5077429;28;20615;-59
2022/06/12 10:54:42;;;;;;;2.15;1.95;;;;;;;;;;5077920;28;20527;-59
2022/06/12 10:57:16;;;;;;;2.67;1.70;;;;;;;;;;5078466;28;20196;-59
2022/06/12 10:59:48;;;;;;;1.80;1.70;;;;;;;;;;5077906;28;20414;-59
2022/06/12 11:02:32;;;;;;;2.30;1.70;;;;;;;;;;5077047;28;20193;-59
2022/06/12 11:05:04;;;;;;;2.88;1.70;;;;;;;;;;5076804;28;20564;-59
2022/06/12 11:07:35;;;;;;;1.70;1.60;;;;;;;;;;5078072;28;20234;-59
2022/06/12 11:10:16;;;;;;;1.85;1.70;;;;;;;;;;5076741;28;20200;-59
2022/06/12 11:12:56;;;;;;;1.85;1.70;;;;;;;;;;5076894;28;20256;-59
2022/06/12 11:15:30;;;;;;;1.80;1.70;;;;;;;;;;5076061;28;20298;-59
2022/06/12 11:18:03;;;;;;;2.35;1.80;;;;;;;;;;5075656;28;20212;-59
2022/06/12 11:20:33;;;;;;;1.95;1.75;;;;;;;;;;5075699;28;20580;-59
2022/06/12 11:23:07;;;;;;;2.22;2.03;;;;;;;;;;5076189;28;20200;-59
2022/06/12 11:25:40;;;;;;;2.10;1.90;;;;;;;;;;5076715;28;20204;-59
2022/06/12 11:28:16;;;;;;;3.03;1.58;;;;;;;;;;5076973;28;20234;-59
2022/06/12 11:30:48;;;;;;;1.90;1.80;;;;;;;;;;5077508;28;20196;-59
2022/06/12 11:33:27;;;;;;;2.53;1.90;;;;;;;;;;5076915;28;20231;-59
2022/06/12 11:35:58;;;;;;;1.67;1.52;;;;;;;;;;5077247;28;20196;-59
2022/06/12 11:38:36;;;;;;;2.53;1.70;;;;;;;;;;5077912;28;20775;-59
2022/06/12 11:41:08;;;;;;;1.70;1.60;;;;;;;;;;5077657;28;20196;-59
2022/06/12 11:43:38;;;;;;;2.17;1.70;;;;;;;;;;5077199;28;20224;-59
2022/06/12 11:46:16;;;;;;;2.15;1.65;;;;;;;;;;5077484;28;20199;-59
2022/06/12 11:49:17;;;;;;;2.13;1.55;;;;;;;;;;5078542;28;20481;-59
2022/06/12 11:51:51;;;;;;;2.00;1.80;;;;;;;;;;4994788;28;20191;-59
2022/06/12 11:54:33;;;;;;;1.90;1.80;;;;;;;;;;4996553;28;20213;-59
2022/06/12 11:57:05;;;;;;;1.98;1.70;;;;;;;;;;5044598;28;20204;-63
2022/06/12 11:59:41;;;;;;;1.98;1.50;;;;;;;;;;5077236;28;20490;-59
2022/06/12 12:02:13;;;;;;;1.60;1.50;;;;;;;;;;5077825;28;20215;-59
2022/06/12 12:04:57;;;;;;;1.83;1.67;;;;;;;;;;5076796;28;20196;-59
2022/06/12 12:07:34;;;;;;;1.70;1.60;;;;;;;;;;5077420;28;20196;-59
2022/06/12 12:10:09;;;;;;;1.65;1.52;;;;;;;;;;5076931;28;20602;-59
2022/06/12 12:12:38;;;;;;;1.70;1.60;;;;;;;;;;5076333;28;20232;-59
2022/06/12 12:15:12;;;;;;;1.80;1.70;;;;;;;;;;5076495;28;20208;-59
2022/06/12 12:17:42;;;;;;;2.25;1.65;;;;;;;;;;5077467;28;20234;-59
2022/06/12 12:20:15;;;;;;;1.80;1.70;;;;;;;;;;5077006;28;20200;-59
2022/06/12 12:22:45;;;;;;;1.60;1.50;;;;;;;;;;5077500;28;20195;-59
2022/06/12 12:25:17;;;;;;;1.77;1.67;;;;;;;;;;5077143;28;20204;-59
2022/06/12 12:27:45;;;;;;;2.13;1.60;;;;;;;;;;5076566;28;20207;-59
2022/06/12 12:30:19;;;;;;;1.77;1.67;;;;;;;;;;5077026;28;20633;-59
2022/06/12 12:32:48;;;;;;;1.85;1.75;;;;;;;;;;5076624;28;20246;-59
2022/06/12 12:41:11;;;;;;;1.85;1.75;;;;;;;;;;5075238;28;20204;-59
2022/06/12 12:43:37;;;;;;;1.80;1.70;;;;;;;;;;5075701;28;20203;-59
2022/06/12 12:46:08;;;;;;;1.88;1.77;;;;;;;;;;5076306;28;20204;-59
2022/06/12 12:48:44;;;;;;;1.90;1.80;;;;;;;;;;5075010;28;20211;-59
2022/06/12 12:51:12;;;;;;;1.55;1.45;;;;;;;;;;5076149;28;20239;-59
2022/06/12 12:53:40;;;;;;;1.80;1.70;;;;;;;;;;5076370;28;20222;-59
2022/06/12 12:56:10;;;;;;;1.80;1.60;;;;;;;;;;5075751;28;20201;-59
2022/06/12 12:58:39;;;;;;;1.80;1.70;;;;;;;;;;5076409;28;20465;-59
2022/06/12 13:01:12;;;;;;;1.80;1.42;;;;;;;;;;5076244;28;20206;-59
2022/06/12 13:03:40;;;;;;;1.75;1.65;;;;;;;;;;5075417;28;20188;-59
2022/06/12 13:06:23;;;;;;;1.98;1.60;;;;;;;;;;5076913;28;20287;-60
2022/06/12 13:09:05;;;;;;;1.90;1.80;;;;;;;;;;5075314;28;20192;-59
2022/06/12 13:11:39;;;;;;;1.70;1.60;;;;;;;;;;5071612;28;20197;-62
2022/06/12 13:14:11;;;;;;;1.60;1.50;;;;;;;;;;5075079;28;20777;-59
2022/06/12 13:16:56;;;;;;;2.78;1.70;;;;;;;;;;5076217;28;20449;-59
2022/06/12 13:19:38;;;;;;;1.85;1.75;;;;;;;;;;5076403;28;20517;-59
2022/06/12 13:22:12;;;;;;;1.70;1.60;;;;;;;;;;5076356;28;20196;-59
2022/06/12 13:24:41;;;;;;;1.73;1.60;;;;;;;;;;5055833;28;20200;-60
2022/06/12 13:27:13;;;;;;;1.50;1.40;;;;;;;;;;5057783;28;20553;-59
2022/06/12 13:29:44;;;;;;;1.50;1.40;;;;;;;;;;5075879;28;20204;-60
2022/06/12 13:32:20;;;;;;;1.80;1.70;;;;;;;;;;5076629;28;20248;-59
2022/06/12 13:34:56;;;;;;;1.70;1.60;;;;;;;;;;5076301;28;20513;-59
2022/06/12 13:37:24;;;;;;;1.40;1.30;;;;;;;;;;5075872;28;20215;-59
2022/06/12 13:39:51;;;;;;;1.50;1.40;;;;;;;;;;5075634;28;20287;-59
2022/06/12 13:42:22;;;;;;;1.70;1.58;;;;;;;;;;5075723;28;20211;-60
2022/06/12 13:44:50;;;;;;;1.60;1.50;;;;;;;;;;5070402;28;20208;-59
2022/06/12 13:47:26;;;;;;;1.60;1.50;;;;;;;;;;5074982;28;20200;-59
2022/06/12 13:49:55;;;;;;;1.58;1.48;;;;;;;;;;5075864;28;20239;-59
2022/06/12 13:52:34;;;;;;;1.70;1.60;;;;;;;;;;5076725;28;20204;-59
2022/06/12 13:55:02;;;;;;;1.70;1.60;;;;;;;;;;5075729;28;20200;-59
2022/06/12 13:57:31;;;;;;;1.60;1.50;;;;;;;;;;5075867;28;20580;-59
2022/06/12 13:59:59;;;;;;;1.98;1.77;;;;;;;;;;5072483;28;20297;-59
2022/06/12 14:02:28;;;;;;;1.50;1.40;;;;;;;;;;5075736;28;20212;-59
2022/06/12 14:04:58;;;;;;;1.60;1.50;;;;;;;;;;5075860;28;20239;-59
2022/06/12 14:07:26;;;;;;;1.75;1.65;;;;;;;;;;5074704;28;20305;-59
2022/06/12 14:09:57;;;;;;;2.03;1.73;;;;;;;;;;5074953;28;20192;-59
2022/06/12 14:12:25;;;;;;;1.70;1.60;;;;;;;;;;5074134;28;20210;-59
2022/06/12 14:14:54;;;;;;;1.85;1.58;;;;;;;;;;5075138;28;20197;-59
2022/06/12 14:17:23;;;;;;;1.70;1.60;;;;;;;;;;5075617;28;20202;-59
2022/06/12 14:19:58;;;;;;;1.60;1.50;;;;;;;;;;5074948;28;20606;-59
2022/06/12 14:22:26;;;;;;;1.60;1.50;;;;;;;;;;5073872;28;20218;-59
2022/06/12 14:24:59;;;;;;;1.42;1.33;;;;;;;;;;5074165;28;20204;-59
2022/06/12 14:27:33;;;;;;;1.83;1.65;;;;;;;;;;5074015;28;20609;-60
2022/06/12 14:30:00;;;;;;;1.33;1.23;;;;;;;;;;5075072;28;20270;-59
2022/06/12 14:32:29;;;;;;;1.58;1.48;;;;;;;;;;5057316;28;20499;-59
2022/06/12 14:35:01;;;;;;;1.55;1.45;;;;;;;;;;5074701;28;20204;-59
2022/06/12 14:37:33;;;;;;;1.60;1.50;;;;;;;;;;5074980;28;20291;-60
2022/06/12 14:40:16;;;;;;;1.55;1.45;;;;;;;;;;5073963;28;20196;-59
2022/06/12 14:42:43;;;;;;;1.65;1.55;;;;;;;;;;5074660;28;20547;-59
2022/06/12 14:45:13;;;;;;;1.70;1.60;;;;;;;;;;5074648;28;20216;-59
2022/06/12 14:47:40;;;;;;;1.60;1.50;;;;;;;;;;5076252;28;20215;-59
2022/06/12 14:50:12;;;;;;;1.50;1.40;;;;;;;;;;5074648;28;20228;-59
2022/06/12 14:52:39;;;;;;;1.55;1.45;;;;;;;;;;5073737;28;20208;-59
2022/06/12 14:55:09;;;;;;;1.50;1.40;;;;;;;;;;5074385;28;20464;-59
2022/06/12 14:57:37;;;;;;;1.60;1.50;;;;;;;;;;5076594;28;20203;-59
2022/06/12 15:00:06;;;;;;;1.70;1.60;;;;;;;;;;5078018;28;20440;-60
2022/06/12 15:02:33;;;;;;;1.70;1.60;;;;;;;;;;5076856;28;20215;-60
2022/06/12 15:05:01;;;;;;;1.60;1.50;;;;;;;;;;5077614;28;20200;-59
2022/06/12 15:07:28;;;;;;;1.77;1.67;;;;;;;;;;5077049;28;20207;-59
2022/06/12 15:09:58;;;;;;;1.60;1.50;;;;;;;;;;5076580;28;20200;-59
2022/06/12 15:12:27;;;;;;;1.50;1.40;;;;;;;;;;5076819;28;20283;-59
2022/06/12 15:14:54;;;;;;;1.73;1.63;;;;;;;;;;5077414;28;20234;-59
2022/06/12 15:17:24;;;;;;;1.60;1.50;;;;;;;;;;5077161;28;20611;-59
2022/06/12 15:19:51;;;;;;;1.52;1.40;;;;;;;;;;5076339;28;20208;-59
2022/06/12 15:22:20;;;;;;;1.48;1.38;;;;;;;;;;5077987;28;20204;-59